createdAt,value
2023-05-13T00:00:17.589Z,9.00
2023-05-13T00:01:20.378Z,10.20
2023-05-13T00:02:23.011Z,11.10
2023-05-13T00:03:26.524Z,9.70
2023-05-13T00:04:29.708Z,10.40
2023-05-13T00:05:33.421Z,9.10
2023-05-13T00:06:36.338Z,10.00
2023-05-13T00:07:41.023Z,11.00
2023-05-13T00:08:43.960Z,9.90
2023-05-13T00:09:47.054Z,9.10
2023-05-13T00:10:50.067Z,10.30
2023-05-13T00:11:52.942Z,9.45
2023-05-13T00:12:55.862Z,9.64
2023-05-13T00:15:12.047Z,11.40
2023-05-13T00:16:15.632Z,9.20
2023-05-13T00:17:18.183Z,10.00
2023-05-13T00:18:20.724Z,9.00
2023-05-13T00:19:24.084Z,9.80
2023-05-13T00:20:26.791Z,8.80
2023-05-13T00:21:30.183Z,6.55
2023-05-13T00:22:32.682Z,11.40
2023-05-13T00:23:35.344Z,10.00
2023-05-13T00:24:38.478Z,9.45
2023-05-13T00:25:43.860Z,9.20
2023-05-13T00:26:47.156Z,11.10
2023-05-13T00:27:51.576Z,11.20
2023-05-13T00:28:54.543Z,9.40
2023-05-13T00:29:58.944Z,10.10
2023-05-13T00:31:01.922Z,10.40
2023-05-13T00:32:05.774Z,8.30
2023-05-13T00:33:08.704Z,9.50
2023-05-13T00:34:11.978Z,9.00
2023-05-13T00:35:15.038Z,9.60
2023-05-13T00:36:18.213Z,6.60
2023-05-13T00:37:21.706Z,10.20
2023-05-13T00:38:24.612Z,8.20
2023-05-13T00:39:28.224Z,10.09
2023-05-13T00:40:30.937Z,5.00
2023-05-13T00:41:34.416Z,9.20
2023-05-13T00:42:37.225Z,10.80
2023-05-13T00:43:40.702Z,9.55
2023-05-13T00:44:43.559Z,9.30
2023-05-13T00:45:47.719Z,10.91
2023-05-13T00:46:50.526Z,11.10
2023-05-13T00:47:53.491Z,10.50
2023-05-13T00:48:56.814Z,10.90
2023-05-13T00:49:59.509Z,11.20
2023-05-13T00:51:03.233Z,11.10
2023-05-13T00:52:07.287Z,11.09
2023-05-13T00:53:11.183Z,10.20
2023-05-13T00:54:13.826Z,10.60
2023-05-13T00:55:16.916Z,11.30
2023-05-13T00:56:23.394Z,10.00
2023-05-13T00:57:26.263Z,11.40
2023-05-13T00:58:31.713Z,10.40
2023-05-13T00:59:34.296Z,10.30
2023-05-13T01:02:09.318Z,11.00
2023-05-13T01:04:41.298Z,10.50
2023-05-13T01:05:50.614Z,9.10
2023-05-13T01:07:30.735Z,10.90
2023-05-13T01:10:17.425Z,9.70
2023-05-13T01:11:32.817Z,9.70
2023-05-13T01:12:37.173Z,10.10
2023-05-13T01:13:41.746Z,7.00
2023-05-13T01:16:37.349Z,10.80
2023-05-13T01:17:59.153Z,11.20
2023-05-13T01:19:06.122Z,11.20
2023-05-13T01:20:10.057Z,10.50
2023-05-13T01:21:14.862Z,10.00
2023-05-13T01:22:18.920Z,8.90
2023-05-13T01:23:21.928Z,10.20
2023-05-13T01:24:24.654Z,8.30
2023-05-13T01:25:28.659Z,10.70
2023-05-13T01:26:31.679Z,11.20
2023-05-13T01:27:34.660Z,8.90
2023-05-13T01:28:37.662Z,9.00
2023-05-13T01:29:40.721Z,10.64
2023-05-13T01:30:43.592Z,7.00
2023-05-13T01:31:46.986Z,9.20
2023-05-13T01:32:50.316Z,10.60
2023-05-13T01:33:54.090Z,10.30
2023-05-13T01:34:58.142Z,11.50
2023-05-13T01:36:01.954Z,7.90
2023-05-13T01:37:06.217Z,11.30
2023-05-13T01:38:09.613Z,9.90
2023-05-13T01:39:12.905Z,9.80
2023-05-13T01:40:31.747Z,12.00
2023-05-13T01:41:22.833Z,11.30
2023-05-13T01:42:29.112Z,11.00
2023-05-13T01:43:33.831Z,9.10
2023-05-13T01:44:37.734Z,7.10
2023-05-13T01:45:40.908Z,8.90
2023-05-13T01:46:44.228Z,8.70
2023-05-13T01:47:47.579Z,10.80
2023-05-13T01:48:50.425Z,11.80
2023-05-13T01:49:53.850Z,10.82
2023-05-13T01:50:57.630Z,8.90
2023-05-13T01:52:00.799Z,11.20
2023-05-13T01:53:04.252Z,10.20
2023-05-13T01:54:07.922Z,11.90
2023-05-13T01:55:12.673Z,10.20
2023-05-13T01:56:16.281Z,8.20
2023-05-13T01:57:19.652Z,8.91
2023-05-13T01:58:24.289Z,9.60
2023-05-13T01:59:27.339Z,10.60
2023-05-13T02:00:30.210Z,8.10
2023-05-13T02:01:33.428Z,8.40
2023-05-13T02:02:36.408Z,10.36
2023-05-13T02:03:39.579Z,11.20
2023-05-13T02:04:42.401Z,10.70
2023-05-13T02:05:47.017Z,8.36
2023-05-13T02:06:50.028Z,9.60
2023-05-13T02:07:54.747Z,10.60
2023-05-13T02:08:59.611Z,9.20
2023-05-13T02:10:04.016Z,10.20
2023-05-13T02:11:07.897Z,10.30
2023-05-13T02:12:10.721Z,7.27
2023-05-13T02:13:14.592Z,10.82
2023-05-13T02:14:17.402Z,10.00
2023-05-13T02:15:20.423Z,8.09
2023-05-13T02:16:23.474Z,6.50
2023-05-13T02:17:26.485Z,8.70
2023-05-13T02:18:29.344Z,10.90
2023-05-13T02:19:32.682Z,10.27
2023-05-13T02:20:35.620Z,11.10
2023-05-13T02:21:38.428Z,10.20
2023-05-13T02:22:44.537Z,10.80
2023-05-13T02:23:48.164Z,12.00
2023-05-13T02:24:50.987Z,10.73
2023-05-13T02:25:55.087Z,9.40
2023-05-13T02:26:57.796Z,8.90
2023-05-13T02:28:00.984Z,9.90
2023-05-13T02:29:03.816Z,10.36
2023-05-13T02:30:09.622Z,10.70
2023-05-13T02:31:13.708Z,10.60
2023-05-13T02:32:17.735Z,8.60
2023-05-13T02:33:20.854Z,11.30
2023-05-13T02:34:24.113Z,8.82
2023-05-13T02:35:29.811Z,11.40
2023-05-13T02:36:36.879Z,11.60
2023-05-13T02:37:40.237Z,9.90
2023-05-13T02:38:45.554Z,11.40
2023-05-13T02:39:49.316Z,8.40
2023-05-13T02:40:54.638Z,10.90
2023-05-13T02:41:59.313Z,9.50
2023-05-13T02:43:03.522Z,8.60
2023-05-13T02:44:08.015Z,8.80
2023-05-13T02:45:12.712Z,10.36
2023-05-13T02:46:16.418Z,9.40
2023-05-13T02:47:20.517Z,10.10
2023-05-13T02:48:23.296Z,11.00
2023-05-13T02:49:27.182Z,9.82
2023-05-13T02:50:30.603Z,12.00
2023-05-13T02:51:34.334Z,10.30
2023-05-13T02:52:39.300Z,8.60
2023-05-13T02:53:42.271Z,10.20
2023-05-13T02:54:46.072Z,7.90
2023-05-13T02:55:49.338Z,12.20
2023-05-13T02:56:53.436Z,4.30
2023-05-13T02:58:09.818Z,11.30
2023-05-13T02:59:12.509Z,9.20
2023-05-13T03:00:18.532Z,12.50
2023-05-13T03:01:21.274Z,9.20
2023-05-13T03:02:24.790Z,10.36
2023-05-13T03:03:29.336Z,9.40
2023-05-13T03:04:32.213Z,10.10
2023-05-13T03:05:34.748Z,8.80
2023-05-13T03:06:38.018Z,9.18
2023-05-13T03:07:41.711Z,8.50
2023-05-13T03:08:44.439Z,9.18
2023-05-13T03:09:47.882Z,8.27
2023-05-13T03:10:51.163Z,10.30
2023-05-13T03:11:54.502Z,8.60
2023-05-13T03:12:57.201Z,10.90
2023-05-13T03:13:59.617Z,8.80
2023-05-13T03:15:03.060Z,10.10
2023-05-13T03:16:05.943Z,9.50
2023-05-13T03:17:08.900Z,9.80
2023-05-13T03:18:11.739Z,8.91
2023-05-13T03:19:14.947Z,9.00
2023-05-13T03:20:18.297Z,8.80
2023-05-13T03:21:21.453Z,7.10
2023-05-13T03:22:24.223Z,8.70
2023-05-13T03:23:28.029Z,8.80
2023-05-13T03:24:32.243Z,8.90
2023-05-13T03:25:36.132Z,9.30
2023-05-13T03:26:39.073Z,8.80
2023-05-13T03:27:42.312Z,9.40
2023-05-13T03:28:45.767Z,9.60
2023-05-13T03:29:49.486Z,8.30
2023-05-13T03:30:52.532Z,9.20
2023-05-13T03:31:55.280Z,8.73
2023-05-13T03:32:59.560Z,10.10
2023-05-13T03:34:03.570Z,11.20
2023-05-13T03:35:07.901Z,9.80
2023-05-13T03:36:11.883Z,8.40
2023-05-13T03:37:15.601Z,9.80
2023-05-13T03:39:30.514Z,8.80
2023-05-13T03:41:45.720Z,8.70
2023-05-13T03:42:50.408Z,9.10
2023-05-13T03:43:55.414Z,9.80
2023-05-13T03:44:58.126Z,8.00
2023-05-13T03:46:00.849Z,9.91
2023-05-13T03:47:04.459Z,8.27
2023-05-13T03:48:07.518Z,9.30
2023-05-13T03:49:10.181Z,9.70
2023-05-13T03:50:13.684Z,8.90
2023-05-13T03:51:18.735Z,9.40
2023-05-13T03:52:22.254Z,8.60
2023-05-13T03:53:26.638Z,10.18
2023-05-13T03:54:29.818Z,5.90
2023-05-13T03:55:33.656Z,8.09
2023-05-13T03:56:37.059Z,9.70
2023-05-13T03:57:40.595Z,8.80
2023-05-13T03:58:43.685Z,6.40
2023-05-13T03:59:46.475Z,9.82
2023-05-13T04:00:49.206Z,8.30
2023-05-13T04:01:52.985Z,9.40
2023-05-13T04:02:57.075Z,8.73
2023-05-13T04:03:59.982Z,9.20
2023-05-13T04:05:05.207Z,7.80
2023-05-13T04:06:08.118Z,9.70
2023-05-13T04:07:11.407Z,8.36
2023-05-13T04:08:15.344Z,8.80
2023-05-13T04:09:20.052Z,6.20
2023-05-13T04:10:22.995Z,8.60
2023-05-13T04:11:26.823Z,8.10
2023-05-13T04:12:33.130Z,8.20
2023-05-13T04:13:37.199Z,8.80
2023-05-13T04:14:40.201Z,7.30
2023-05-13T04:15:42.980Z,8.60
2023-05-13T04:16:46.762Z,8.27
2023-05-13T04:17:50.202Z,9.10
2023-05-13T04:18:52.905Z,8.80
2023-05-13T04:19:56.689Z,7.60
2023-05-13T04:21:06.747Z,8.90
2023-05-13T04:22:09.769Z,7.70
2023-05-13T04:23:13.926Z,7.82
2023-05-13T04:25:31.213Z,8.00
2023-05-13T04:26:34.832Z,7.30
2023-05-13T04:27:37.800Z,7.00
2023-05-13T04:28:42.276Z,8.20
2023-05-13T04:29:45.686Z,7.27
2023-05-13T04:30:49.196Z,7.00
2023-05-13T04:31:52.730Z,6.70
2023-05-13T04:32:56.038Z,6.20
2023-05-13T04:33:58.987Z,8.20
2023-05-13T04:35:02.812Z,8.80
2023-05-13T04:36:07.239Z,7.80
2023-05-13T04:37:10.838Z,8.10
2023-05-13T04:38:13.768Z,9.00
2023-05-13T04:39:16.453Z,8.45
2023-05-13T04:40:20.575Z,8.40
2023-05-13T04:41:24.332Z,8.30
2023-05-13T04:42:28.022Z,7.60
2023-05-13T04:43:31.478Z,7.90
2023-05-13T04:44:36.446Z,8.90
2023-05-13T04:45:40.079Z,9.70
2023-05-13T04:46:45.709Z,9.30
2023-05-13T04:47:49.885Z,8.60
2023-05-13T04:48:53.831Z,8.20
2023-05-13T04:49:57.822Z,9.60
2023-05-13T04:51:01.104Z,8.80
2023-05-13T04:52:06.614Z,10.60
2023-05-13T04:53:10.005Z,9.50
2023-05-13T04:54:13.347Z,8.82
2023-05-13T04:55:16.997Z,10.20
2023-05-13T04:56:20.291Z,8.90
2023-05-13T04:57:23.467Z,9.50
2023-05-13T04:58:29.634Z,9.00
2023-05-13T05:00:45.732Z,9.50
2023-05-13T05:01:49.731Z,9.20
2023-05-13T05:02:52.843Z,10.80
2023-05-13T05:03:56.203Z,11.64
2023-05-13T05:04:58.972Z,10.30
2023-05-13T05:06:01.534Z,10.30
2023-05-13T05:07:06.128Z,7.80
2023-05-13T05:08:09.031Z,10.20
2023-05-13T05:09:12.700Z,9.80
2023-05-13T05:10:16.163Z,11.00
2023-05-13T05:11:21.416Z,10.40
2023-05-13T05:12:25.589Z,6.80
2023-05-13T05:13:29.350Z,10.40
2023-05-13T05:15:44.143Z,11.60
2023-05-13T05:16:48.554Z,11.60
2023-05-13T05:17:51.323Z,10.20
2023-05-13T05:18:54.103Z,9.73
2023-05-13T05:19:58.490Z,11.30
2023-05-13T05:21:02.606Z,5.70
2023-05-13T05:22:05.590Z,11.30
2023-05-13T05:23:10.146Z,12.20
2023-05-13T05:24:12.776Z,9.30
2023-05-13T05:25:16.464Z,10.45
2023-05-13T05:26:19.424Z,11.50
2023-05-13T05:27:24.008Z,12.20
2023-05-13T05:28:27.028Z,14.50
2023-05-13T05:29:29.755Z,12.80
2023-05-13T05:30:34.337Z,13.91
2023-05-13T05:31:39.492Z,15.60
2023-05-13T05:32:42.360Z,14.10
2023-05-13T05:33:45.109Z,13.60
2023-05-13T05:34:47.917Z,14.70
2023-05-13T05:35:50.982Z,13.64
2023-05-13T05:36:55.670Z,13.40
2023-05-13T05:37:59.885Z,13.30
2023-05-13T05:39:02.907Z,14.60
2023-05-13T05:40:10.623Z,12.90
2023-05-13T05:41:15.256Z,13.50
2023-05-13T05:42:19.099Z,12.10
2023-05-13T05:43:21.848Z,13.40
2023-05-13T05:44:26.422Z,13.90
2023-05-13T05:45:30.037Z,10.27
2023-05-13T05:46:33.387Z,12.50
2023-05-13T05:47:36.852Z,11.20
2023-05-13T05:48:41.301Z,13.30
2023-05-13T05:49:45.580Z,11.50
2023-05-13T05:50:48.779Z,11.60
2023-05-13T05:51:53.924Z,11.80
2023-05-13T05:52:58.627Z,11.00
2023-05-13T05:54:03.388Z,11.10
2023-05-13T05:55:08.525Z,10.60
2023-05-13T05:56:13.934Z,9.90
2023-05-13T05:57:18.170Z,10.20
2023-05-13T05:58:22.346Z,10.70
2023-05-13T05:59:28.497Z,11.60
2023-05-13T06:00:36.066Z,10.60
2023-05-13T06:01:39.438Z,10.40
2023-05-13T06:02:43.258Z,11.10
2023-05-13T06:03:47.372Z,9.90
2023-05-13T06:04:51.528Z,10.40
2023-05-13T06:05:55.757Z,10.70
2023-05-13T06:06:58.664Z,11.36
2023-05-13T06:08:01.721Z,10.60
2023-05-13T06:09:06.562Z,10.80
2023-05-13T06:10:11.179Z,8.40
2023-05-13T06:11:15.493Z,9.00
2023-05-13T06:12:18.735Z,11.00
2023-05-13T06:13:21.334Z,9.20
2023-05-13T06:14:25.314Z,10.60
2023-05-13T06:15:30.284Z,8.60
2023-05-13T06:16:34.332Z,9.20
2023-05-13T06:17:37.698Z,10.60
2023-05-13T06:18:40.887Z,9.40
2023-05-13T06:19:44.592Z,9.60
2023-05-13T06:20:47.497Z,8.70
2023-05-13T06:21:51.498Z,8.55
2023-05-13T06:22:55.414Z,7.70
2023-05-13T06:24:01.896Z,6.90
2023-05-13T06:25:05.384Z,5.70
2023-05-13T06:26:11.149Z,7.90
2023-05-13T06:27:14.652Z,7.50
2023-05-13T06:28:18.652Z,7.70
2023-05-13T06:29:22.370Z,7.20
2023-05-13T06:30:25.384Z,6.09
2023-05-13T06:31:30.115Z,5.80
2023-05-13T06:32:32.968Z,5.20
2023-05-13T06:33:35.857Z,8.09
2023-05-13T06:34:39.809Z,6.30
2023-05-13T06:35:44.586Z,7.80
2023-05-13T06:36:48.301Z,7.30
2023-05-13T06:37:51.860Z,5.60
2023-05-13T06:38:55.177Z,7.30
2023-05-13T06:39:59.883Z,3.30
2023-05-13T06:42:14.546Z,5.70
2023-05-13T06:43:21.527Z,7.10
2023-05-13T06:44:26.033Z,5.70
2023-05-13T06:45:30.782Z,4.30
2023-05-13T06:46:34.091Z,6.10
2023-05-13T06:47:37.190Z,6.60
2023-05-13T06:48:40.850Z,5.55
2023-05-13T06:49:44.188Z,2.10
2023-05-13T06:50:49.171Z,5.80
2023-05-13T06:51:51.867Z,5.50
2023-05-13T06:52:54.705Z,6.10
2023-05-13T06:53:58.814Z,5.80
2023-05-13T06:55:02.210Z,6.80
2023-05-13T06:56:05.966Z,7.10
2023-05-13T06:57:09.778Z,6.00
2023-05-13T06:58:12.451Z,5.70
2023-05-13T06:59:16.332Z,5.40
2023-05-13T07:00:20.972Z,3.90
2023-05-13T07:01:24.140Z,6.70
2023-05-13T07:02:27.872Z,5.00
2023-05-13T07:03:31.000Z,5.60
2023-05-13T07:04:34.128Z,6.45
2023-05-13T07:05:37.731Z,5.60
2023-05-13T07:06:40.701Z,6.10
2023-05-13T07:07:43.636Z,7.60
2023-05-13T07:08:46.391Z,6.90
2023-05-13T07:09:50.061Z,5.60
2023-05-13T07:10:52.788Z,7.00
2023-05-13T07:11:55.813Z,6.40
2023-05-13T07:12:58.320Z,2.10
2023-05-13T07:14:00.874Z,5.40
2023-05-13T07:15:04.233Z,6.20
2023-05-13T07:16:07.856Z,5.60
2023-05-13T07:17:11.118Z,5.70
2023-05-13T07:18:14.240Z,4.40
2023-05-13T07:19:18.540Z,5.40
2023-05-13T07:20:22.977Z,5.30
2023-05-13T07:21:26.186Z,5.10
2023-05-13T07:22:28.969Z,4.90
2023-05-13T07:23:33.080Z,5.00
2023-05-13T07:24:35.549Z,6.30
2023-05-13T07:25:40.013Z,5.70
2023-05-13T07:26:42.786Z,5.30
2023-05-13T07:27:47.327Z,5.10
2023-05-13T07:28:51.165Z,4.80
2023-05-13T07:29:54.249Z,5.50
2023-05-13T07:30:58.292Z,4.60
2023-05-13T07:32:05.189Z,4.80
2023-05-13T07:33:09.205Z,5.40
2023-05-13T07:34:12.915Z,5.90
2023-05-13T07:35:17.502Z,6.50
2023-05-13T07:36:21.706Z,6.80
2023-05-13T07:37:24.677Z,5.70
2023-05-13T07:38:27.388Z,5.27
2023-05-13T07:39:31.031Z,4.73
2023-05-13T07:40:33.821Z,5.40
2023-05-13T07:41:37.802Z,3.00
2023-05-13T07:42:40.642Z,5.60
2023-05-13T07:43:43.714Z,4.91
2023-05-13T07:44:46.512Z,5.00
2023-05-13T07:47:03.820Z,5.40
2023-05-13T07:48:06.885Z,3.60
2023-05-13T07:49:09.700Z,4.60
2023-05-13T07:50:15.018Z,4.90
2023-05-13T07:51:18.388Z,4.90
2023-05-13T07:52:21.294Z,5.40
2023-05-13T07:53:24.392Z,3.90
2023-05-13T07:54:27.931Z,4.70
2023-05-13T07:55:31.844Z,3.80
2023-05-13T07:56:35.329Z,4.50
2023-05-13T07:57:38.900Z,4.70
2023-05-13T07:58:41.712Z,4.82
2023-05-13T07:59:45.089Z,4.50
2023-05-13T08:00:48.899Z,4.30
2023-05-13T08:01:52.258Z,4.70
2023-05-13T08:02:56.594Z,3.10
2023-05-13T08:04:00.828Z,5.00
2023-05-13T08:05:04.871Z,5.00
2023-05-13T08:06:09.918Z,4.60
2023-05-13T08:07:12.712Z,4.50
2023-05-13T08:08:15.788Z,4.00
2023-05-13T08:09:19.975Z,4.60
2023-05-13T08:10:23.470Z,4.90
2023-05-13T08:11:26.364Z,4.70
2023-05-13T08:12:30.050Z,5.50
2023-05-13T08:13:33.802Z,4.00
2023-05-13T08:14:36.402Z,4.70
2023-05-13T08:15:40.331Z,4.70
2023-05-13T08:16:43.767Z,4.40
2023-05-13T08:17:48.669Z,4.82
2023-05-13T08:18:51.708Z,4.40
2023-05-13T08:19:54.421Z,3.82
2023-05-13T08:20:57.341Z,5.09
2023-05-13T08:22:00.693Z,4.45
2023-05-13T08:23:03.993Z,3.50
2023-05-13T08:24:08.176Z,3.20
2023-05-13T08:25:12.172Z,5.40
2023-05-13T08:26:16.321Z,3.80
2023-05-13T08:27:19.285Z,3.40
2023-05-13T08:28:22.457Z,4.20
2023-05-13T08:29:26.012Z,3.00
2023-05-13T08:30:29.114Z,3.30
2023-05-13T08:31:32.034Z,4.20
2023-05-13T08:32:35.544Z,4.20
2023-05-13T08:33:41.518Z,3.60
2023-05-13T08:34:44.212Z,4.30
2023-05-13T08:35:46.937Z,4.00
2023-05-13T08:36:50.228Z,3.73
2023-05-13T08:37:53.086Z,4.10
2023-05-13T08:38:56.124Z,4.30
2023-05-13T08:40:00.829Z,4.50
2023-05-13T08:41:06.085Z,3.20
2023-05-13T08:42:09.008Z,3.20
2023-05-13T08:43:12.210Z,4.10
2023-05-13T08:45:30.903Z,4.00
2023-05-13T08:46:34.862Z,3.10
2023-05-13T08:47:55.043Z,3.50
2023-05-13T08:48:58.500Z,4.50
2023-05-13T08:50:02.948Z,2.50
2023-05-13T08:51:05.941Z,4.00
2023-05-13T08:52:08.816Z,3.70
2023-05-13T08:53:12.550Z,4.64
2023-05-13T08:54:17.142Z,4.40
2023-05-13T08:55:20.397Z,4.60
2023-05-13T08:56:25.122Z,4.90
2023-05-13T08:57:28.076Z,4.40
2023-05-13T08:58:31.387Z,5.60
2023-05-13T08:59:36.000Z,4.10
2023-05-13T09:00:39.176Z,2.70
2023-05-13T09:01:43.958Z,4.10
2023-05-13T09:02:48.049Z,4.90
2023-05-13T09:03:58.149Z,4.40
2023-05-13T09:05:04.927Z,4.30
2023-05-13T09:06:07.962Z,4.10
2023-05-13T09:07:11.409Z,4.82
2023-05-13T09:08:15.035Z,2.80
2023-05-13T09:09:18.080Z,4.60
2023-05-13T09:10:21.000Z,5.30
2023-05-13T09:11:24.893Z,4.10
2023-05-13T09:14:06.084Z,5.10
2023-05-13T09:15:11.497Z,4.10
2023-05-13T09:16:15.747Z,4.50
2023-05-13T09:17:18.559Z,5.50
2023-05-13T09:18:21.150Z,2.60
2023-05-13T09:19:26.155Z,3.50
2023-05-13T09:21:42.976Z,2.70
2023-05-13T09:22:51.176Z,4.40
2023-05-13T09:25:25.867Z,4.80
2023-05-13T09:26:29.764Z,3.60
2023-05-13T09:27:41.637Z,5.10
2023-05-13T09:28:46.235Z,5.00
2023-05-13T09:29:53.161Z,3.50
2023-05-13T09:30:56.397Z,4.00
2023-05-13T09:32:01.276Z,4.50
2023-05-13T09:33:10.646Z,4.30
2023-05-13T09:34:13.394Z,4.70
2023-05-13T09:35:17.380Z,3.50
2023-05-13T09:36:20.156Z,5.30
2023-05-13T09:37:23.976Z,3.55
2023-05-13T09:39:42.504Z,4.20
2023-05-13T09:40:58.311Z,4.55
2023-05-13T09:42:04.311Z,4.80
2023-05-13T09:43:11.064Z,4.80
2023-05-13T09:44:15.373Z,3.40
2023-05-13T09:45:18.137Z,5.00
2023-05-13T09:46:22.254Z,4.80
2023-05-13T09:47:26.093Z,3.90
2023-05-13T09:48:30.559Z,5.00
2023-05-13T09:50:57.699Z,5.50
2023-05-13T09:52:00.942Z,6.20
2023-05-13T09:53:19.240Z,4.70
2023-05-13T09:56:09.426Z,4.40
2023-05-13T09:58:32.329Z,4.50
2023-05-13T09:59:35.523Z,4.70
2023-05-13T10:00:42.388Z,3.70
2023-05-13T10:02:58.532Z,6.00
2023-05-13T10:04:04.954Z,5.20
2023-05-13T10:05:26.529Z,5.40
2023-05-13T10:06:32.458Z,4.80
2023-05-13T10:07:36.966Z,4.90
2023-05-13T10:08:39.653Z,4.20
2023-05-13T10:09:43.497Z,5.91
2023-05-13T10:10:46.557Z,4.50
2023-05-13T10:11:51.299Z,3.70
2023-05-13T10:13:59.053Z,4.20
2023-05-13T10:16:14.128Z,4.90
2023-05-13T10:18:29.888Z,4.80
2023-05-13T10:19:33.643Z,4.10
2023-05-13T10:20:37.068Z,5.20
2023-05-13T10:21:46.027Z,6.30
2023-05-13T10:22:51.522Z,0.80
2023-05-13T10:23:55.900Z,5.00
2023-05-13T10:25:02.614Z,5.80
2023-05-13T10:26:06.424Z,3.56
2023-05-13T10:27:09.407Z,5.30
2023-05-13T10:29:25.642Z,5.30
2023-05-13T10:30:30.718Z,6.20
2023-05-13T10:31:34.979Z,3.80
2023-05-13T10:32:41.202Z,5.80
2023-05-13T10:33:45.653Z,4.60
2023-05-13T10:34:48.727Z,5.00
2023-05-13T10:37:48.902Z,5.70
2023-05-13T10:39:20.497Z,5.80
2023-05-13T10:41:00.349Z,6.00
2023-05-13T10:42:25.722Z,3.40
2023-05-13T10:43:32.232Z,5.20
2023-05-13T10:44:35.145Z,5.10
2023-05-13T10:45:37.986Z,5.30
2023-05-13T10:46:42.624Z,5.30
2023-05-13T10:47:49.640Z,5.50
2023-05-13T10:48:58.339Z,4.50
2023-05-13T10:51:24.389Z,4.30
2023-05-13T10:52:30.719Z,4.50
2023-05-13T10:53:36.752Z,4.90
2023-05-13T10:54:41.805Z,5.50
2023-05-13T10:55:45.933Z,6.50
2023-05-13T10:56:58.674Z,5.50
2023-05-13T10:58:12.743Z,5.10
2023-05-13T10:59:17.770Z,6.60
2023-05-13T11:02:55.154Z,8.30
2023-05-13T11:04:03.770Z,6.30
2023-05-13T11:05:07.269Z,7.00
2023-05-13T11:06:18.834Z,8.50
2023-05-13T11:07:22.535Z,6.20
2023-05-13T11:08:40.486Z,7.80
2023-05-13T11:09:51.008Z,7.50
2023-05-13T11:10:56.752Z,7.60
2023-05-13T11:12:00.245Z,4.60
2023-05-13T11:13:23.393Z,6.30
2023-05-13T11:14:27.861Z,7.80
2023-05-13T11:15:47.982Z,8.10
2023-05-13T11:17:04.357Z,8.00
2023-05-13T11:18:07.108Z,6.60
2023-05-13T11:19:18.837Z,5.90
2023-05-13T11:21:36.114Z,7.20
2023-05-13T11:23:59.818Z,7.10
2023-05-13T11:25:12.104Z,7.40
2023-05-13T11:26:17.815Z,8.40
2023-05-13T11:27:21.762Z,7.10
2023-05-13T11:28:59.556Z,6.80
2023-05-13T11:30:03.308Z,7.10
2023-05-13T11:31:16.430Z,8.20
2023-05-13T11:34:14.363Z,6.30
2023-05-13T11:35:24.096Z,7.60
2023-05-13T11:36:30.745Z,6.00
2023-05-13T11:37:33.440Z,4.50
2023-05-13T11:38:39.025Z,5.73
2023-05-13T11:39:42.286Z,7.00
2023-05-13T11:40:45.645Z,5.00
2023-05-13T11:41:49.939Z,6.60
2023-05-13T11:42:54.652Z,6.10
2023-05-13T11:43:59.118Z,6.90
2023-05-13T11:45:03.955Z,5.20
2023-05-13T11:46:07.517Z,5.30
2023-05-13T11:47:11.541Z,4.09
2023-05-13T11:49:41.870Z,4.20
2023-05-13T11:50:45.364Z,4.20
2023-05-13T11:51:48.984Z,3.80
2023-05-13T11:52:58.262Z,4.70
2023-05-13T11:56:40.787Z,4.60
2023-05-13T11:59:14.037Z,4.80
2023-05-13T12:00:18.884Z,4.10
2023-05-13T12:01:24.756Z,3.80
2023-05-13T12:03:42.985Z,3.60
2023-05-13T12:04:46.188Z,3.80
2023-05-13T12:05:51.842Z,5.36
2023-05-13T12:06:54.526Z,4.40
2023-05-13T12:07:58.232Z,3.70
2023-05-13T12:09:09.150Z,4.10
2023-05-13T12:10:14.573Z,5.10
2023-05-13T12:11:17.484Z,4.70
2023-05-13T12:12:20.469Z,5.00
2023-05-13T12:13:23.334Z,7.00
2023-05-13T12:14:27.887Z,6.40
2023-05-13T12:15:31.221Z,3.90
2023-05-13T12:16:34.185Z,5.70
2023-05-13T12:17:38.499Z,3.80
2023-05-13T12:18:41.311Z,5.50
2023-05-13T12:20:05.901Z,6.20
2023-05-13T12:22:29.530Z,5.60
2023-05-13T12:24:54.698Z,5.30
2023-05-13T12:25:59.150Z,5.80
2023-05-13T12:27:07.217Z,5.20
2023-05-13T12:28:20.099Z,6.20
2023-05-13T12:29:23.296Z,6.40
2023-05-13T12:30:27.200Z,8.30
2023-05-13T12:31:30.689Z,8.60
2023-05-13T12:32:34.547Z,6.80
2023-05-13T12:33:42.774Z,7.00
2023-05-13T12:34:50.566Z,8.20
2023-05-13T12:37:27.289Z,8.30
2023-05-13T12:38:31.774Z,6.90
2023-05-13T12:39:34.190Z,7.80
2023-05-13T12:40:37.007Z,8.90
2023-05-13T12:41:40.927Z,7.36
2023-05-13T12:42:46.766Z,5.80
2023-05-13T12:43:50.524Z,8.20
2023-05-13T12:44:54.105Z,6.60
2023-05-13T12:46:00.225Z,8.10
2023-05-13T12:47:04.256Z,9.30
2023-05-13T12:48:07.078Z,7.00
2023-05-13T12:49:12.482Z,8.90
2023-05-13T12:50:15.688Z,9.00
2023-05-13T12:51:18.896Z,8.18
2023-05-13T12:52:21.799Z,8.60
2023-05-13T12:53:24.980Z,6.60
2023-05-13T12:54:27.653Z,7.40
2023-05-13T12:55:31.162Z,6.80
2023-05-13T12:56:33.985Z,6.40
2023-05-13T12:57:36.850Z,7.64
2023-05-13T12:59:52.971Z,7.50
2023-05-13T13:00:55.636Z,6.70
2023-05-13T13:03:24.882Z,7.40
2023-05-13T13:04:27.804Z,7.55
2023-05-13T13:05:32.311Z,7.18
2023-05-13T13:06:35.203Z,6.30
2023-05-13T13:07:38.118Z,7.60
2023-05-13T13:08:40.976Z,6.45
2023-05-13T13:09:44.857Z,6.70
2023-05-13T13:10:48.124Z,8.00
2023-05-13T13:11:52.428Z,7.40
2023-05-13T13:12:55.252Z,8.50
2023-05-13T13:14:00.033Z,1.60
2023-05-13T13:15:04.904Z,6.40
2023-05-13T13:16:09.828Z,7.70
2023-05-13T13:17:13.774Z,7.20
2023-05-13T13:18:16.293Z,9.10
2023-05-13T13:19:19.268Z,8.55
2023-05-13T13:20:22.983Z,6.70
2023-05-13T13:22:38.691Z,8.80
2023-05-13T13:23:41.613Z,7.40
2023-05-13T13:24:45.388Z,6.10
2023-05-13T13:25:48.230Z,5.60
2023-05-13T13:26:53.138Z,6.90
2023-05-13T13:27:55.810Z,7.60
2023-05-13T13:28:58.575Z,4.90
2023-05-13T13:30:03.082Z,6.45
2023-05-13T13:31:07.854Z,6.40
2023-05-13T13:32:11.108Z,7.40
2023-05-13T13:33:15.290Z,5.90
2023-05-13T13:34:18.170Z,5.40
2023-05-13T13:35:21.201Z,7.18
2023-05-13T13:36:26.071Z,7.30
2023-05-13T13:37:28.536Z,6.30
2023-05-13T13:38:31.791Z,6.50
2023-05-13T13:39:35.010Z,7.50
2023-05-13T13:40:38.352Z,7.60
2023-05-13T13:41:41.371Z,8.10
2023-05-13T13:42:47.002Z,8.20
2023-05-13T13:43:49.728Z,7.50
2023-05-13T13:44:52.420Z,5.55
2023-05-13T13:45:56.136Z,8.30
2023-05-13T13:46:59.173Z,8.70
2023-05-13T13:48:03.030Z,8.90
2023-05-13T13:49:22.769Z,8.00
2023-05-13T13:50:13.184Z,7.00
2023-05-13T13:51:16.271Z,8.40
2023-05-13T13:52:20.474Z,7.40
2023-05-13T13:53:22.999Z,8.20
2023-05-13T13:54:25.540Z,11.00
2023-05-13T13:55:28.702Z,10.70
2023-05-13T13:56:31.397Z,11.90
2023-05-13T13:57:36.069Z,11.60
2023-05-13T13:58:39.881Z,11.20
2023-05-13T13:59:42.574Z,10.20
2023-05-13T14:00:45.914Z,8.73
2023-05-13T14:01:50.683Z,9.89
2023-05-13T14:02:54.372Z,9.90
2023-05-13T14:04:11.456Z,8.60
2023-05-13T14:05:16.298Z,10.00
2023-05-13T14:07:32.519Z,8.80
2023-05-13T14:08:36.469Z,9.50
2023-05-13T14:09:38.973Z,5.50
2023-05-13T14:10:42.337Z,5.82
2023-05-13T14:12:59.216Z,7.00
2023-05-13T14:14:02.125Z,6.10
2023-05-13T14:15:06.313Z,6.20
2023-05-13T14:16:10.102Z,5.20
2023-05-13T14:17:14.510Z,6.00
2023-05-13T14:18:18.732Z,4.80
2023-05-13T14:19:21.775Z,5.60
2023-05-13T14:20:24.544Z,5.27
2023-05-13T14:21:27.082Z,5.82
2023-05-13T14:22:30.073Z,5.40
2023-05-13T14:23:33.068Z,4.60
2023-05-13T14:24:35.645Z,4.91
2023-05-13T14:25:38.409Z,5.00
2023-05-13T14:27:54.884Z,4.40
2023-05-13T14:28:59.915Z,4.80
2023-05-13T14:30:04.544Z,4.20
2023-05-13T14:31:08.394Z,5.00
2023-05-13T14:32:11.001Z,4.20
2023-05-13T14:33:13.847Z,4.64
2023-05-13T14:34:17.088Z,5.30
2023-05-13T14:35:19.670Z,5.10
2023-05-13T14:36:24.963Z,5.00
2023-05-13T14:37:29.338Z,6.10
2023-05-13T14:38:32.131Z,5.30
2023-05-13T14:39:35.897Z,5.30
2023-05-13T14:40:39.978Z,5.60
2023-05-13T14:41:46.262Z,5.90
2023-05-13T14:42:49.299Z,5.90
2023-05-13T14:43:52.071Z,4.40
2023-05-13T14:44:55.243Z,6.00
2023-05-13T14:45:57.925Z,6.00
2023-05-13T14:47:00.609Z,5.30
2023-05-13T14:48:03.640Z,5.18
2023-05-13T14:49:08.012Z,5.20
2023-05-13T14:50:12.308Z,6.00
2023-05-13T14:51:15.005Z,5.10
2023-05-13T14:52:17.604Z,6.40
2023-05-13T14:53:20.631Z,6.50
2023-05-13T14:54:24.884Z,5.20
2023-05-13T14:55:27.950Z,5.40
2023-05-13T14:56:31.528Z,6.40
2023-05-13T14:57:35.298Z,5.70
2023-05-13T14:58:39.249Z,6.10
2023-05-13T14:59:41.894Z,5.80
2023-05-13T15:00:46.468Z,5.60
2023-05-13T15:01:49.284Z,5.20
2023-05-13T15:02:52.197Z,5.00
2023-05-13T15:03:57.486Z,5.18
2023-05-13T15:04:59.972Z,6.20
2023-05-13T15:06:04.218Z,5.80
2023-05-13T15:07:07.217Z,4.70
2023-05-13T15:08:12.342Z,4.70
2023-05-13T15:09:16.052Z,5.90
2023-05-13T15:10:19.191Z,5.30
2023-05-13T15:11:23.565Z,4.70
2023-05-13T15:12:27.478Z,4.40